Time;durP1;ratioP1;P1;durP2;ratioP2;P2;SDS_P1;SDS_P2;PMS_P1;PMS_P2;Temp;Humidity;BMP_temperature;BMP_pressure;BME280_temperature;BME280_humidity;BME280_pressure;Samples;Min_cycle;Max_cycle;Signal;HPM_P1;HPM_P2
2023/03/13 00:02:10;;;;;;;14.60;5.10;;;;;;;;;;5071809;28;20925;-85
2023/03/13 00:04:36;;;;;;;17.83;4.57;;;;;;;;;;5073255;28;20407;-84
2023/03/13 00:07:02;;;;;;;14.73;5.30;;;;;;;;;;5071812;28;20420;-85
2023/03/13 00:09:28;;;;;;;16.73;4.73;;;;;;;;;;5073131;28;20474;-84
2023/03/13 00:11:54;;;;;;;17.43;4.60;;;;;;;;;;5071816;28;20448;-85
2023/03/13 00:14:19;;;;;;;18.30;4.80;;;;;;;;;;5071464;28;20448;-85
2023/03/13 00:16:45;;;;;;;19.47;5.73;;;;;;;;;;5073021;28;20415;-85
2023/03/13 00:19:12;;;;;;;14.83;5.10;;;;;;;;;;5071813;28;20466;-85
2023/03/13 00:21:41;;;;;;;14.10;4.67;;;;;;;;;;5071458;28;20534;-85
2023/03/13 00:24:08;;;;;;;15.43;4.53;;;;;;;;;;5070652;28;20438;-84
2023/03/13 00:26:35;;;;;;;15.53;5.63;;;;;;;;;;5071579;28;20955;-85
2023/03/13 00:29:00;;;;;;;16.07;4.80;;;;;;;;;;5072307;28;20427;-84
2023/03/13 00:31:28;;;;;;;14.97;5.10;;;;;;;;;;5072507;28;20740;-83
2023/03/13 00:33:56;;;;;;;13.87;5.00;;;;;;;;;;5071473;28;20470;-83
2023/03/13 00:36:24;;;;;;;16.00;3.50;;;;;;;;;;5071685;28;20894;-83
2023/03/13 00:38:50;;;;;;;14.73;4.27;;;;;;;;;;5071184;28;20426;-83
2023/03/13 00:41:23;;;;;;;9.23;4.27;;;;;;;;;;5072474;28;20470;-83
2023/03/13 00:43:50;;;;;;;21.23;3.37;;;;;;;;;;5072329;28;20418;-83
2023/03/13 00:46:17;;;;;;;10.13;4.10;;;;;;;;;;5072717;28;20413;-83
2023/03/13 00:48:43;;;;;;;20.13;5.47;;;;;;;;;;5070534;28;20446;-84
2023/03/13 00:51:10;;;;;;;14.40;4.67;;;;;;;;;;5072865;28;20397;-84
2023/03/13 00:53:36;;;;;;;20.33;3.83;;;;;;;;;;5071520;28;20424;-83
2023/03/13 00:56:26;;;;;;;22.23;5.00;;;;;;;;;;5071160;28;20419;-83
2023/03/13 00:58:52;;;;;;;14.97;4.70;;;;;;;;;;5071157;28;20792;-83
2023/03/13 01:01:20;;;;;;;16.47;4.03;;;;;;;;;;5071408;28;20968;-83
2023/03/13 01:03:47;;;;;;;13.73;3.10;;;;;;;;;;5030292;28;20446;-83
2023/03/13 01:06:15;;;;;;;17.60;3.63;;;;;;;;;;5070931;28;20423;-84
2023/03/13 01:08:41;;;;;;;23.50;5.70;;;;;;;;;;5071907;28;20441;-83
2023/03/13 01:11:08;;;;;;;22.17;4.43;;;;;;;;;;5071247;28;20779;-83
2023/03/13 01:13:35;;;;;;;23.87;5.03;;;;;;;;;;5071064;28;20417;-82
2023/03/13 01:16:05;;;;;;;18.43;5.90;;;;;;;;;;5071298;28;20566;-83
2023/03/13 01:18:31;;;;;;;16.67;4.67;;;;;;;;;;5070892;28;20476;-82
2023/03/13 01:20:57;;;;;;;19.20;5.00;;;;;;;;;;5071077;28;20479;-82
2023/03/13 01:23:23;;;;;;;16.07;5.40;;;;;;;;;;5071223;28;20417;-83
2023/03/13 01:25:49;;;;;;;12.73;4.20;;;;;;;;;;5071057;28;20415;-83
2023/03/13 01:28:15;;;;;;;12.33;3.60;;;;;;;;;;5071032;28;20421;-83
2023/03/13 01:30:42;;;;;;;22.07;5.67;;;;;;;;;;5072078;28;20440;-84
2023/03/13 01:33:09;;;;;;;14.57;4.27;;;;;;;;;;5071187;28;20455;-84
2023/03/13 01:35:38;;;;;;;20.97;5.23;;;;;;;;;;5071091;28;20847;-84
2023/03/13 01:38:04;;;;;;;16.37;4.70;;;;;;;;;;5071121;28;20430;-84
2023/03/13 01:40:30;;;;;;;23.40;5.00;;;;;;;;;;5072317;28;20490;-84
2023/03/13 01:42:59;;;;;;;13.63;4.83;;;;;;;;;;5072281;28;20558;-86
2023/03/13 01:45:44;;;;;;;24.67;4.83;;;;;;;;;;5070913;28;20412;-88
2023/03/13 01:48:10;;;;;;;15.57;5.00;;;;;;;;;;5071322;28;20928;-88
2023/03/13 01:50:36;;;;;;;18.20;4.50;;;;;;;;;;5072642;28;20421;-87
2023/03/13 01:53:02;;;;;;;12.17;5.53;;;;;;;;;;5072405;28;20430;-88
2023/03/13 01:55:28;;;;;;;21.70;4.60;;;;;;;;;;5072348;28;20411;-85
2023/03/13 01:57:54;;;;;;;16.60;4.90;;;;;;;;;;5072254;28;20833;-85
2023/03/13 02:00:24;;;;;;;23.60;6.17;;;;;;;;;;5071767;28;20458;-85
2023/03/13 02:02:52;;;;;;;20.33;5.43;;;;;;;;;;5072138;28;20498;-85
2023/03/13 02:05:19;;;;;;;12.97;3.70;;;;;;;;;;5072145;28;20407;-84
2023/03/13 02:07:47;;;;;;;17.70;3.80;;;;;;;;;;5073962;28;20499;-86
2023/03/13 02:10:15;;;;;;;18.83;4.13;;;;;;;;;;5075638;28;20413;-85
2023/03/13 02:12:41;;;;;;;16.20;4.07;;;;;;;;;;5075658;28;20466;-85
2023/03/13 02:15:12;;;;;;;12.83;4.10;;;;;;;;;;5075396;28;20413;-86
2023/03/13 02:17:39;;;;;;;18.90;6.20;;;;;;;;;;5075325;28;20411;-87
2023/03/13 02:20:05;;;;;;;17.00;3.80;;;;;;;;;;5074288;28;20791;-86
2023/03/13 02:22:40;;;;;;;16.13;3.97;;;;;;;;;;5074098;28;20485;-87
2023/03/13 02:25:13;;;;;;;18.20;4.03;;;;;;;;;;5075418;28;20506;-87
2023/03/13 02:27:42;;;;;;;16.80;4.33;;;;;;;;;;5073945;28;20502;-85
2023/03/13 02:30:09;;;;;;;21.13;3.70;;;;;;;;;;5073460;28;20426;-85
2023/03/13 02:32:36;;;;;;;18.90;3.90;;;;;;;;;;5075142;28;20413;-85
2023/03/13 02:35:04;;;;;;;19.13;4.57;;;;;;;;;;5073080;28;20424;-85
2023/03/13 02:37:30;;;;;;;19.60;4.83;;;;;;;;;;5075391;28;20411;-82
2023/03/13 02:39:59;;;;;;;15.60;4.80;;;;;;;;;;5075112;28;20804;-83
2023/03/13 02:42:24;;;;;;;21.43;4.50;;;;;;;;;;5074969;28;20871;-85
2023/03/13 02:44:51;;;;;;;18.30;4.37;;;;;;;;;;5074704;28;20408;-85
2023/03/13 02:47:21;;;;;;;20.17;4.77;;;;;;;;;;5074775;28;20437;-86
2023/03/13 02:49:47;;;;;;;14.73;4.27;;;;;;;;;;5075078;28;20404;-86
2023/03/13 02:52:16;;;;;;;14.00;3.23;;;;;;;;;;5073932;28;20964;-84
2023/03/13 02:54:44;;;;;;;14.57;4.07;;;;;;;;;;5073040;28;20419;-84
2023/03/13 02:57:10;;;;;;;15.53;4.13;;;;;;;;;;5074425;28;20767;-84
2023/03/13 02:59:36;;;;;;;11.37;3.00;;;;;;;;;;5073194;28;20414;-84
2023/03/13 03:02:03;;;;;;;15.20;2.87;;;;;;;;;;5074103;28;20469;-83
2023/03/13 03:04:29;;;;;;;18.00;3.40;;;;;;;;;;5033942;28;20912;-84
2023/03/13 03:06:55;;;;;;;19.13;4.00;;;;;;;;;;5074646;28;20445;-84
2023/03/13 03:09:21;;;;;;;14.40;2.90;;;;;;;;;;5074607;28;20450;-84
2023/03/13 03:11:47;;;;;;;14.77;3.90;;;;;;;;;;5073274;28;20421;-85
2023/03/13 03:14:13;;;;;;;14.97;4.40;;;;;;;;;;5074322;28;20948;-86
2023/03/13 03:16:39;;;;;;;17.10;4.13;;;;;;;;;;5073329;28;20897;-86
2023/03/13 03:19:09;;;;;;;12.93;3.70;;;;;;;;;;5072824;28;20453;-87
2023/03/13 03:21:35;;;;;;;20.93;4.20;;;;;;;;;;5073398;28;20564;-86
2023/03/13 03:24:02;;;;;;;14.97;3.30;;;;;;;;;;5073309;28;20418;-86
2023/03/13 03:26:28;;;;;;;14.33;2.93;;;;;;;;;;5073195;28;20530;-85
2023/03/13 03:28:56;;;;;;;13.60;2.90;;;;;;;;;;5072982;28;20439;-87
2023/03/13 03:31:22;;;;;;;15.10;3.57;;;;;;;;;;5056289;28;20519;-86
2023/03/13 03:33:48;;;;;;;12.90;2.90;;;;;;;;;;5056653;28;20504;-87
2023/03/13 03:36:16;;;;;;;15.87;3.00;;;;;;;;;;5074222;28;20918;-86
2023/03/13 03:38:42;;;;;;;11.07;3.90;;;;;;;;;;5073025;28;20413;-88
2023/03/13 03:41:10;;;;;;;17.37;3.87;;;;;;;;;;5072809;28;20465;-87
2023/03/13 03:43:36;;;;;;;16.47;3.10;;;;;;;;;;5072732;28;20425;-86
2023/03/13 03:46:02;;;;;;;14.13;4.17;;;;;;;;;;5072980;28;20874;-87
2023/03/13 03:48:28;;;;;;;16.93;2.83;;;;;;;;;;5072984;28;20428;-87
2023/03/13 03:50:54;;;;;;;12.30;3.43;;;;;;;;;;5073148;28;20408;-88
2023/03/13 03:53:21;;;;;;;10.63;3.10;;;;;;;;;;5072898;28;20424;-87
2023/03/13 03:55:47;;;;;;;14.77;3.07;;;;;;;;;;5073083;28;20414;-88
2023/03/13 03:58:12;;;;;;;13.93;3.50;;;;;;;;;;5072614;28;20916;-88
2023/03/13 04:00:38;;;;;;;20.27;3.43;;;;;;;;;;5073048;28;20421;-85
2023/03/13 04:03:07;;;;;;;16.40;3.10;;;;;;;;;;5073190;28;20563;-87
2023/03/13 04:05:33;;;;;;;11.17;2.97;;;;;;;;;;5073170;28;20426;-86
2023/03/13 04:07:59;;;;;;;15.43;3.60;;;;;;;;;;5034231;28;20996;-86
2023/03/13 04:10:25;;;;;;;13.53;2.63;;;;;;;;;;5072498;28;20417;-86
2023/03/13 04:12:51;;;;;;;14.23;3.10;;;;;;;;;;5073717;28;20436;-86
2023/03/13 04:15:17;;;;;;;14.70;2.77;;;;;;;;;;5073213;28;20418;-86
2023/03/13 04:17:43;;;;;;;13.30;2.97;;;;;;;;;;5072198;28;20420;-86
2023/03/13 04:20:10;;;;;;;13.00;3.10;;;;;;;;;;5072298;28;20423;-86
2023/03/13 04:22:36;;;;;;;12.27;2.60;;;;;;;;;;5073641;28;20834;-88
2023/03/13 04:25:02;;;;;;;13.90;3.23;;;;;;;;;;5072309;28;20417;-86
2023/03/13 04:27:28;;;;;;;16.90;2.20;;;;;;;;;;5072200;28;20516;-87
2023/03/13 04:29:54;;;;;;;11.37;2.77;;;;;;;;;;5072571;28;20509;-87
2023/03/13 04:32:19;;;;;;;9.13;2.60;;;;;;;;;;5072185;28;20431;-87
2023/03/13 04:34:45;;;;;;;10.97;2.40;;;;;;;;;;5073193;28;20762;-86
2023/03/13 04:37:11;;;;;;;10.80;1.80;;;;;;;;;;5071912;28;20423;-85
2023/03/13 04:39:37;;;;;;;8.63;2.50;;;;;;;;;;5073098;28;20520;-85
2023/03/13 04:42:03;;;;;;;11.93;2.93;;;;;;;;;;5072969;28;20478;-85
2023/03/13 04:44:29;;;;;;;13.37;3.20;;;;;;;;;;5071448;28;20420;-86
2023/03/13 04:46:55;;;;;;;10.87;2.03;;;;;;;;;;5071819;28;20405;-86
2023/03/13 04:49:21;;;;;;;13.87;2.53;;;;;;;;;;5071707;28;20425;-85
2023/03/13 04:51:47;;;;;;;19.80;3.53;;;;;;;;;;5071673;28;20776;-86
2023/03/13 04:54:13;;;;;;;11.30;3.57;;;;;;;;;;5071559;28;20517;-84
2023/03/13 04:56:40;;;;;;;10.63;2.60;;;;;;;;;;5071635;28;20951;-86
2023/03/13 04:59:06;;;;;;;6.77;2.60;;;;;;;;;;5071678;28;20414;-85
2023/03/13 05:01:33;;;;;;;14.13;1.93;;;;;;;;;;5073269;28;20863;-87
2023/03/13 05:04:22;;;;;;;6.70;1.73;;;;;;;;;;5072206;28;20429;-84
2023/03/13 05:06:48;;;;;;;12.70;2.13;;;;;;;;;;5072231;28;20440;-88
2023/03/13 05:09:14;;;;;;;13.00;2.83;;;;;;;;;;5055771;28;20422;-86
2023/03/13 05:11:43;;;;;;;14.67;3.13;;;;;;;;;;5073387;28;20933;-86
2023/03/13 05:14:10;;;;;;;11.90;2.80;;;;;;;;;;5071465;28;20423;-86
2023/03/13 05:16:36;;;;;;;8.00;3.03;;;;;;;;;;5072808;28;20868;-82
2023/03/13 05:19:02;;;;;;;10.50;1.37;;;;;;;;;;5072230;28;20516;-82
2023/03/13 05:21:28;;;;;;;11.77;2.20;;;;;;;;;;5071444;28;20482;-86
2023/03/13 05:23:54;;;;;;;20.20;5.30;;;;;;;;;;5071598;28;20420;-85
2023/03/13 05:26:20;;;;;;;14.47;2.70;;;;;;;;;;5070064;28;20424;-81
2023/03/13 05:28:46;;;;;;;9.60;3.10;;;;;;;;;;5070770;28;20419;-83
2023/03/13 05:31:11;;;;;;;13.53;3.23;;;;;;;;;;5071171;28;20421;-83
2023/03/13 05:33:37;;;;;;;11.63;3.00;;;;;;;;;;5071189;28;21278;-83
2023/03/13 05:36:03;;;;;;;16.10;2.70;;;;;;;;;;5071264;28;20413;-82
2023/03/13 05:38:29;;;;;;;14.10;2.30;;;;;;;;;;5071125;28;20413;-82
2023/03/13 05:40:55;;;;;;;5.30;1.63;;;;;;;;;;5070303;28;20409;-81
2023/03/13 05:43:21;;;;;;;12.80;2.87;;;;;;;;;;5074524;28;20417;-81
2023/03/13 05:45:47;;;;;;;16.43;2.60;;;;;;;;;;5074907;28;20471;-83
2023/03/13 05:48:13;;;;;;;17.93;2.57;;;;;;;;;;5074687;28;20434;-81
2023/03/13 05:50:39;;;;;;;7.40;2.83;;;;;;;;;;5074658;28;20420;-82
2023/03/13 05:53:05;;;;;;;16.77;3.20;;;;;;;;;;5071848;28;20444;-81
2023/03/13 05:55:31;;;;;;;6.27;2.40;;;;;;;;;;5075005;28;20426;-83
2023/03/13 05:57:56;;;;;;;10.37;1.90;;;;;;;;;;5075704;28;20422;-82
2023/03/13 06:00:22;;;;;;;7.93;2.50;;;;;;;;;;5074748;28;20417;-82
2023/03/13 06:02:48;;;;;;;17.20;3.20;;;;;;;;;;5075913;28;20484;-83
2023/03/13 06:05:14;;;;;;;4.97;1.23;;;;;;;;;;5075965;28;20402;-83
2023/03/13 06:07:40;;;;;;;14.30;2.87;;;;;;;;;;5075775;28;20421;-82
2023/03/13 06:10:06;;;;;;;14.03;2.83;;;;;;;;;;5075750;28;20416;-84
2023/03/13 06:12:32;;;;;;;8.80;1.67;;;;;;;;;;5075720;28;20441;-83
2023/03/13 06:14:58;;;;;;;6.43;1.37;;;;;;;;;;5075520;28;20396;-87
2023/03/13 06:17:24;;;;;;;4.87;1.10;;;;;;;;;;5074476;28;20420;-87
2023/03/13 06:19:50;;;;;;;5.40;1.70;;;;;;;;;;5075723;28;21007;-86
2023/03/13 06:22:16;;;;;;;6.43;1.13;;;;;;;;;;5074377;28;20623;-81
2023/03/13 06:24:43;;;;;;;7.93;1.43;;;;;;;;;;5075547;28;20423;-81
2023/03/13 06:27:10;;;;;;;5.67;2.00;;;;;;;;;;5075460;28;20408;-85
2023/03/13 06:29:36;;;;;;;5.53;0.97;;;;;;;;;;5075105;28;20764;-85
2023/03/13 06:32:01;;;;;;;2.80;1.73;;;;;;;;;;5075495;28;20428;-84
2023/03/13 06:34:27;;;;;;;4.73;1.00;;;;;;;;;;5075435;28;20409;-84
2023/03/13 06:36:53;;;;;;;6.73;1.53;;;;;;;;;;5075440;28;20439;-85
2023/03/13 06:39:19;;;;;;;3.93;1.60;;;;;;;;;;5075263;28;20909;-82
2023/03/13 06:41:45;;;;;;;1.50;1.10;;;;;;;;;;5075281;28;20523;-83
2023/03/13 06:44:11;;;;;;;6.03;1.27;;;;;;;;;;5074757;28;20521;-83
2023/03/13 06:46:37;;;;;;;3.93;0.90;;;;;;;;;;5065179;28;20466;-81
2023/03/13 06:49:04;;;;;;;2.13;0.70;;;;;;;;;;5065943;28;20438;-82
2023/03/13 06:51:30;;;;;;;3.80;0.63;;;;;;;;;;5054805;28;20415;-84
2023/03/13 06:53:56;;;;;;;1.73;0.77;;;;;;;;;;5053875;28;20765;-83
2023/03/13 06:56:22;;;;;;;6.80;0.87;;;;;;;;;;5054703;28;20974;-83
2023/03/13 06:58:49;;;;;;;2.07;1.13;;;;;;;;;;5054188;28;20470;-84
2023/03/13 07:01:15;;;;;;;1.80;0.53;;;;;;;;;;5070011;28;20913;-82
2023/03/13 07:03:41;;;;;;;2.93;0.70;;;;;;;;;;5031922;28;21207;-82
2023/03/13 07:06:08;;;;;;;3.10;0.60;;;;;;;;;;5074639;28;20449;-84
2023/03/13 07:08:34;;;;;;;3.70;1.40;;;;;;;;;;5073231;28;20417;-85
2023/03/13 07:11:03;;;;;;;4.63;1.17;;;;;;;;;;5074397;28;20422;-84
2023/03/13 07:13:29;;;;;;;4.20;1.07;;;;;;;;;;5074127;28;20395;-84
2023/03/13 07:15:55;;;;;;;3.10;1.13;;;;;;;;;;5074427;28;20468;-85
2023/03/13 07:18:22;;;;;;;4.60;1.43;;;;;;;;;;5074118;28;20491;-84
2023/03/13 07:20:53;;;;;;;2.33;1.03;;;;;;;;;;5074277;28;20425;-84
2023/03/13 07:23:19;;;;;;;4.07;0.90;;;;;;;;;;5072917;28;20800;-83
2023/03/13 07:25:51;;;;;;;2.40;1.27;;;;;;;;;;5074135;28;20410;-84
2023/03/13 07:28:17;;;;;;;4.00;0.90;;;;;;;;;;5073832;28;20545;-82
2023/03/13 07:30:43;;;;;;;3.40;0.60;;;;;;;;;;5073996;28;20905;-82
2023/03/13 07:33:09;;;;;;;3.50;1.10;;;;;;;;;;5073992;28;20181;-84
2023/03/13 07:35:37;;;;;;;4.57;1.03;;;;;;;;;;5073781;28;20555;-83
2023/03/13 07:38:03;;;;;;;5.70;1.20;;;;;;;;;;5072892;28;20566;-80
2023/03/13 07:40:29;;;;;;;3.73;1.20;;;;;;;;;;5072618;28;20441;-89
2023/03/13 07:42:55;;;;;;;4.67;1.07;;;;;;;;;;5073971;28;20482;-89
2023/03/13 07:45:21;;;;;;;7.97;1.70;;;;;;;;;;5073390;28;20406;-89
2023/03/13 07:47:47;;;;;;;5.63;1.37;;;;;;;;;;5054391;28;20506;-88
2023/03/13 07:50:13;;;;;;;4.40;1.33;;;;;;;;;;5054174;28;20918;-82
2023/03/13 07:52:39;;;;;;;3.67;1.30;;;;;;;;;;5052733;28;20446;-88
2023/03/13 07:55:05;;;;;;;4.67;0.70;;;;;;;;;;5054030;28;20662;-87
2023/03/13 07:57:31;;;;;;;4.57;0.80;;;;;;;;;;5053555;28;20486;-88
2023/03/13 07:59:57;;;;;;;6.13;1.30;;;;;;;;;;5053567;28;20892;-88
2023/03/13 08:02:22;;;;;;;3.13;1.00;;;;;;;;;;5053462;28;20481;-87
2023/03/13 08:04:51;;;;;;;4.70;0.90;;;;;;;;;;5052469;28;20411;-89
2023/03/13 08:07:17;;;;;;;3.53;0.97;;;;;;;;;;5053455;28;20559;-88
2023/03/13 08:09:43;;;;;;;3.40;0.83;;;;;;;;;;5053324;28;20471;-85
2023/03/13 08:12:09;;;;;;;2.80;1.90;;;;;;;;;;5053539;28;20501;-90
2023/03/13 08:14:35;;;;;;;4.23;1.30;;;;;;;;;;5054945;28;20197;-93
2023/03/13 08:17:01;;;;;;;3.40;1.27;;;;;;;;;;5053704;28;20463;-90
2023/03/13 08:19:27;;;;;;;2.77;1.47;;;;;;;;;;5054572;28;20494;-90
2023/03/13 08:21:52;;;;;;;4.17;2.20;;;;;;;;;;5053981;28;20968;-90
2023/03/13 08:24:18;;;;;;;4.23;1.87;;;;;;;;;;5054118;28;20899;-89
2023/03/13 08:26:44;;;;;;;4.00;2.03;;;;;;;;;;5053969;28;20846;-90
2023/03/13 08:29:12;;;;;;;6.87;1.50;;;;;;;;;;5053865;28;20454;-89
2023/03/13 08:31:41;;;;;;;3.53;1.57;;;;;;;;;;5054756;28;20685;-88
2023/03/13 08:34:07;;;;;;;2.30;1.30;;;;;;;;;;5053673;28;20412;-84
2023/03/13 08:36:35;;;;;;;3.67;2.00;;;;;;;;;;5053342;28;20772;-89
2023/03/13 08:39:03;;;;;;;7.77;2.10;;;;;;;;;;5053475;28;20404;-88
2023/03/13 08:41:32;;;;;;;3.50;2.00;;;;;;;;;;5053726;28;20991;-88
2023/03/13 08:43:58;;;;;;;6.87;2.60;;;;;;;;;;5053864;28;20420;-87
2023/03/13 08:46:25;;;;;;;7.10;2.47;;;;;;;;;;5054394;28;20418;-90
2023/03/13 08:48:52;;;;;;;4.17;3.03;;;;;;;;;;5054404;28;20424;-91
2023/03/13 08:51:18;;;;;;;4.83;3.10;;;;;;;;;;5054469;28;20398;-88
2023/03/13 08:53:44;;;;;;;8.80;3.10;;;;;;;;;;5052940;28;20420;-86
2023/03/13 08:56:11;;;;;;;6.57;2.90;;;;;;;;;;5065586;28;20411;-87
2023/03/13 08:58:37;;;;;;;4.47;3.50;;;;;;;;;;5072574;28;20418;-86
2023/03/13 09:01:08;;;;;;;4.57;2.77;;;;;;;;;;5072845;28;20452;-81
2023/03/13 09:03:35;;;;;;;5.73;3.40;;;;;;;;;;5071675;28;20451;-82
2023/03/13 09:06:02;;;;;;;5.97;3.87;;;;;;;;;;5072832;28;20450;-85
2023/03/13 09:08:28;;;;;;;9.50;3.87;;;;;;;;;;5072793;28;20499;-84
2023/03/13 09:10:56;;;;;;;5.60;3.57;;;;;;;;;;5072878;28;20452;-85
2023/03/13 09:13:22;;;;;;;5.67;4.30;;;;;;;;;;5072299;28;20424;-85
2023/03/13 09:15:58;;;;;;;6.97;3.80;;;;;;;;;;5071971;28;20423;-86
2023/03/13 09:18:24;;;;;;;7.47;3.63;;;;;;;;;;5076601;28;20601;-85
2023/03/13 09:20:50;;;;;;;7.47;3.50;;;;;;;;;;5076834;28;20451;-84
2023/03/13 09:23:16;;;;;;;5.67;3.60;;;;;;;;;;5076572;28;20559;-86
2023/03/13 09:25:42;;;;;;;7.23;4.03;;;;;;;;;;5076678;28;20403;-84
2023/03/13 09:28:08;;;;;;;10.37;4.67;;;;;;;;;;5076182;28;20465;-83
2023/03/13 09:30:34;;;;;;;5.43;3.60;;;;;;;;;;5074865;28;20547;-85
2023/03/13 09:33:00;;;;;;;7.10;4.00;;;;;;;;;;5075148;28;20415;-84
2023/03/13 09:35:26;;;;;;;9.33;3.37;;;;;;;;;;5075019;28;20443;-85
2023/03/13 09:37:52;;;;;;;9.07;4.23;;;;;;;;;;5075755;28;20187;-84
2023/03/13 09:40:20;;;;;;;6.33;3.77;;;;;;;;;;5075852;28;20466;-85
2023/03/13 09:42:49;;;;;;;6.23;3.93;;;;;;;;;;5075916;28;20472;-85
2023/03/13 09:45:17;;;;;;;6.37;4.63;;;;;;;;;;5076320;28;20438;-86
2023/03/13 09:47:48;;;;;;;6.47;4.50;;;;;;;;;;5075996;28;20404;-86
2023/03/13 09:50:27;;;;;;;6.17;3.47;;;;;;;;;;5074969;28;20776;-86
2023/03/13 09:52:55;;;;;;;8.73;4.37;;;;;;;;;;5076096;28;20408;-86
2023/03/13 09:55:23;;;;;;;6.80;3.80;;;;;;;;;;5076128;28;20779;-86
2023/03/13 09:57:53;;;;;;;7.23;4.50;;;;;;;;;;5075697;28;20491;-86
2023/03/13 10:00:23;;;;;;;8.93;5.13;;;;;;;;;;5075626;28;20542;-86
2023/03/13 10:02:55;;;;;;;5.50;3.17;;;;;;;;;;5075299;28;20595;-84
2023/03/13 10:05:23;;;;;;;10.37;4.30;;;;;;;;;;5074679;28;20429;-85
2023/03/13 10:07:49;;;;;;;6.70;3.50;;;;;;;;;;5075873;28;20417;-85
2023/03/13 10:10:16;;;;;;;7.23;4.90;;;;;;;;;;5075817;28;20410;-85
2023/03/13 10:12:46;;;;;;;6.90;3.50;;;;;;;;;;5075427;28;20420;-85
2023/03/13 10:15:24;;;;;;;4.40;3.50;;;;;;;;;;5074441;28;20778;-86
2023/03/13 10:17:50;;;;;;;10.53;3.87;;;;;;;;;;5074207;28;20533;-86
2023/03/13 10:20:26;;;;;;;8.20;3.70;;;;;;;;;;5074009;28;20847;-85
2023/03/13 10:22:57;;;;;;;5.80;3.33;;;;;;;;;;5075577;28;20527;-87
2023/03/13 10:25:37;;;;;;;5.13;3.47;;;;;;;;;;5075632;28;20918;-85
2023/03/13 10:28:03;;;;;;;8.00;2.70;;;;;;;;;;5073947;28;20506;-84
2023/03/13 10:30:38;;;;;;;6.60;2.80;;;;;;;;;;5032787;28;20441;-83
2023/03/13 10:33:06;;;;;;;3.67;2.03;;;;;;;;;;5075207;28;20426;-89
2023/03/13 10:35:42;;;;;;;5.13;2.00;;;;;;;;;;5076227;28;20881;-86
2023/03/13 10:38:10;;;;;;;4.00;2.87;;;;;;;;;;5074557;28;20845;-88
2023/03/13 10:40:36;;;;;;;3.97;2.20;;;;;;;;;;5075425;28;20485;-85
2023/03/13 10:43:04;;;;;;;5.67;1.70;;;;;;;;;;5075044;28;20466;-86
2023/03/13 10:45:34;;;;;;;5.10;2.60;;;;;;;;;;5066734;28;20450;-85
2023/03/13 10:48:02;;;;;;;4.60;2.40;;;;;;;;;;5070330;28;20415;-85
2023/03/13 10:50:32;;;;;;;3.60;1.50;;;;;;;;;;5073723;28;20435;-85
2023/03/13 10:53:07;;;;;;;4.73;2.30;;;;;;;;;;5073419;28;20421;-83
2023/03/13 10:55:32;;;;;;;3.93;1.13;;;;;;;;;;5073380;28;20420;-84
2023/03/13 10:58:00;;;;;;;2.93;0.77;;;;;;;;;;5071988;28;20997;-84
2023/03/13 11:00:26;;;;;;;3.33;1.30;;;;;;;;;;5072836;28;20469;-85
2023/03/13 11:02:53;;;;;;;1.83;1.43;;;;;;;;;;5074409;28;20559;-83
2023/03/13 11:05:25;;;;;;;2.20;1.27;;;;;;;;;;5073550;28;20946;-85
2023/03/13 11:07:52;;;;;;;2.30;0.93;;;;;;;;;;5073156;28;20408;-85
2023/03/13 11:10:24;;;;;;;3.60;1.30;;;;;;;;;;5073091;28;20408;-85
2023/03/13 11:12:51;;;;;;;2.40;1.43;;;;;;;;;;5073583;28;20931;-85
2023/03/13 11:15:32;;;;;;;3.53;1.20;;;;;;;;;;5073205;28;20407;-85
2023/03/13 11:18:10;;;;;;;4.10;1.30;;;;;;;;;;5074172;28;20597;-85
2023/03/13 11:20:38;;;;;;;3.97;1.30;;;;;;;;;;5072568;28;20509;-84
2023/03/13 11:23:16;;;;;;;3.50;1.60;;;;;;;;;;5069146;28;20475;-85
2023/03/13 11:26:01;;;;;;;4.50;1.53;;;;;;;;;;5069602;28;20501;-85
2023/03/13 11:28:46;;;;;;;1.63;0.83;;;;;;;;;;5055465;28;20499;-82
2023/03/13 11:31:22;;;;;;;5.07;1.17;;;;;;;;;;5028966;28;20863;-85
2023/03/13 11:34:07;;;;;;;2.60;0.90;;;;;;;;;;5074035;28;20971;-81
2023/03/13 11:36:54;;;;;;;1.30;1.00;;;;;;;;;;5074085;28;20450;-81
2023/03/13 11:39:49;;;;;;;1.90;0.93;;;;;;;;;;5073726;28;20400;-81
2023/03/13 11:42:15;;;;;;;4.00;1.23;;;;;;;;;;5060332;28;20486;-80
2023/03/13 11:45:00;;;;;;;3.53;0.80;;;;;;;;;;5073694;28;20478;-81
2023/03/13 11:47:26;;;;;;;2.43;0.63;;;;;;;;;;5072299;28;20814;-81
2023/03/13 11:50:11;;;;;;;2.13;1.60;;;;;;;;;;5073486;28;20404;-80
2023/03/13 11:52:55;;;;;;;3.90;1.83;;;;;;;;;;5073467;28;20186;-80
2023/03/13 11:55:27;;;;;;;1.93;0.70;;;;;;;;;;5073640;28;20911;-80
2023/03/13 11:58:12;;;;;;;2.07;1.17;;;;;;;;;;5073148;28;20777;-89
2023/03/13 12:00:50;;;;;;;3.03;0.93;;;;;;;;;;5073210;28;20913;-89
2023/03/13 12:03:17;;;;;;;2.27;1.13;;;;;;;;;;5072493;28;20485;-87
2023/03/13 12:05:51;;;;;;;2.23;0.73;;;;;;;;;;5074021;28;20491;-87
2023/03/13 12:08:37;;;;;;;2.27;0.50;;;;;;;;;;5073880;28;20502;-87
2023/03/13 12:11:06;;;;;;;2.13;0.47;;;;;;;;;;5073627;28;20414;-86
2023/03/13 12:13:34;;;;;;;1.60;0.50;;;;;;;;;;5073311;28;20436;-90
2023/03/13 12:16:02;;;;;;;1.10;0.40;;;;;;;;;;5073791;28;20420;-90
2023/03/13 12:18:32;;;;;;;2.30;0.63;;;;;;;;;;5072544;28;21081;-89
2023/03/13 12:21:04;;;;;;;1.77;0.50;;;;;;;;;;5073811;28;20479;-90
2023/03/13 12:23:53;;;;;;;5.93;0.60;;;;;;;;;;5073965;28;20996;-88
2023/03/13 12:26:19;;;;;;;2.67;0.30;;;;;;;;;;5073039;28;20415;-87
2023/03/13 12:28:51;;;;;;;1.60;0.63;;;;;;;;;;5073163;28;20407;-88
2023/03/13 12:31:17;;;;;;;1.17;0.43;;;;;;;;;;5072429;28;20454;-89
2023/03/13 12:33:52;;;;;;;2.80;0.40;;;;;;;;;;5033325;28;20430;-90
2023/03/13 12:36:20;;;;;;;1.50;0.60;;;;;;;;;;5073151;28;20261;-88
2023/03/13 12:38:53;;;;;;;1.47;0.40;;;;;;;;;;5073205;28;20414;-89
2023/03/13 12:41:23;;;;;;;2.70;0.20;;;;;;;;;;5073302;28;20445;-90
2023/03/13 12:43:50;;;;;;;2.60;0.30;;;;;;;;;;5072071;28;20456;-87
2023/03/13 12:46:16;;;;;;;1.77;0.70;;;;;;;;;;5070476;28;20417;-88
2023/03/13 12:48:51;;;;;;;0.80;0.50;;;;;;;;;;5072732;28;20418;-88
2023/03/13 12:51:30;;;;;;;2.17;0.50;;;;;;;;;;5069346;28;20182;-84
2023/03/13 12:54:04;;;;;;;1.50;0.40;;;;;;;;;;5070354;28;20437;-85
2023/03/13 12:56:37;;;;;;;1.43;0.47;;;;;;;;;;5074213;28;20413;-89
2023/03/13 12:59:07;;;;;;;1.83;0.43;;;;;;;;;;5072750;28;20515;-90
2023/03/13 13:01:35;;;;;;;1.50;0.50;;;;;;;;;;5073484;28;20537;-87
2023/03/13 13:04:05;;;;;;;1.87;0.70;;;;;;;;;;5073117;28;20511;-85
2023/03/13 13:06:50;;;;;;;2.07;0.37;;;;;;;;;;5072628;28;20882;-85
2023/03/13 13:09:21;;;;;;;2.83;0.47;;;;;;;;;;5070803;28;20420;-83
2023/03/13 13:11:49;;;;;;;0.80;0.43;;;;;;;;;;5072402;28;20424;-89
2023/03/13 13:14:17;;;;;;;0.70;0.20;;;;;;;;;;5071593;28;20448;-85
2023/03/13 13:16:48;;;;;;;1.10;0.20;;;;;;;;;;5070463;28;20471;-89
2023/03/13 13:19:37;;;;;;;1.63;0.43;;;;;;;;;;5070720;28;20476;-86
2023/03/13 13:22:21;;;;;;;2.53;0.47;;;;;;;;;;5071747;28;20501;-87
2023/03/13 13:24:51;;;;;;;3.57;0.67;;;;;;;;;;5070395;28;20447;-81
2023/03/13 13:27:35;;;;;;;2.40;0.40;;;;;;;;;;5070086;28;20416;-85
2023/03/13 13:30:24;;;;;;;4.97;0.90;;;;;;;;;;5071605;28;20419;-83
2023/03/13 13:32:51;;;;;;;0.80;0.30;;;;;;;;;;5071696;28;20426;-86
2023/03/13 13:35:30;;;;;;;1.47;0.20;;;;;;;;;;5070309;28;20454;-85
2023/03/13 13:38:17;;;;;;;1.70;0.33;;;;;;;;;;5022146;28;20440;-82
2023/03/13 13:40:59;;;;;;;3.03;0.40;;;;;;;;;;5067311;28;20492;-86
2023/03/13 13:43:25;;;;;;;3.43;0.50;;;;;;;;;;5064021;28;20531;-83
2023/03/13 13:46:02;;;;;;;6.40;0.87;;;;;;;;;;5069200;28;20898;-86
2023/03/13 13:48:32;;;;;;;1.53;0.40;;;;;;;;;;5071630;28;20552;-86
2023/03/13 13:51:12;;;;;;;2.47;0.70;;;;;;;;;;5072140;28;20421;-87
2023/03/13 13:53:40;;;;;;;2.80;0.50;;;;;;;;;;5074390;28;20786;-87
2023/03/13 13:56:26;;;;;;;5.70;0.70;;;;;;;;;;5072397;28;20439;-89
2023/03/13 13:58:55;;;;;;;1.57;0.40;;;;;;;;;;5072320;28;20453;-90
2023/03/13 14:01:21;;;;;;;1.60;0.47;;;;;;;;;;5072667;28;20422;-88
2023/03/13 14:03:47;;;;;;;1.87;0.90;;;;;;;;;;5075801;28;20433;-91
2023/03/13 14:06:39;;;;;;;2.93;0.97;;;;;;;;;;5075984;28;20175;-88
2023/03/13 14:09:16;;;;;;;0.60;0.43;;;;;;;;;;5072805;28;20931;-81
2023/03/13 14:11:42;;;;;;;2.20;0.43;;;;;;;;;;5075380;28;20431;-89
2023/03/13 14:14:09;;;;;;;1.27;0.50;;;;;;;;;;5056306;28;20438;-86
2023/03/13 14:16:36;;;;;;;1.70;0.77;;;;;;;;;;5054457;28;20172;-86
2023/03/13 14:19:02;;;;;;;3.03;0.97;;;;;;;;;;5055777;28;20474;-88
2023/03/13 14:21:28;;;;;;;1.10;0.40;;;;;;;;;;5055618;28;20464;-92
2023/03/13 14:23:54;;;;;;;2.13;0.43;;;;;;;;;;5056556;28;20509;-90
2023/03/13 14:26:27;;;;;;;2.27;0.40;;;;;;;;;;5058114;28;20436;-84
2023/03/13 14:28:55;;;;;;;0.70;0.20;;;;;;;;;;5056172;28;20427;-89
2023/03/13 14:31:22;;;;;;;1.53;0.30;;;;;;;;;;5056020;28;20983;-89
2023/03/13 14:33:48;;;;;;;4.93;0.80;;;;;;;;;;5054573;28;20777;-87
2023/03/13 14:36:14;;;;;;;3.23;0.20;;;;;;;;;;5055217;28;20478;-87
2023/03/13 14:38:40;;;;;;;2.30;0.60;;;;;;;;;;5068919;28;21086;-86
2023/03/13 14:41:06;;;;;;;2.83;0.53;;;;;;;;;;5074332;28;20176;-89
2023/03/13 14:43:37;;;;;;;3.23;0.40;;;;;;;;;;5074034;28;20855;-80
2023/03/13 14:46:13;;;;;;;2.50;0.30;;;;;;;;;;5074196;28;20585;-88
2023/03/13 14:48:39;;;;;;;1.67;0.40;;;;;;;;;;5075674;28;20416;-88